sensor_id;sensor_type;location;lat;lon;timestamp;P1;durP1;ratioP1;P2;durP2;ratioP2
83263;SDS011;73156;50.988;11.034;2024-01-27T00:01:14;17.57;;;7.87;;
83263;SDS011;73156;50.988;11.034;2024-01-27T00:03:39;18.07;;;7.50;;
83263;SDS011;73156;50.988;11.034;2024-01-27T00:06:05;14.67;;;6.93;;
83263;SDS011;73156;50.988;11.034;2024-01-27T00:08:30;17.92;;;7.75;;
83263;SDS011;73156;50.988;11.034;2024-01-27T00:10:55;16.58;;;7.25;;
83263;SDS011;73156;50.988;11.034;2024-01-27T00:13:21;13.67;;;7.00;;
83263;SDS011;73156;50.988;11.034;2024-01-27T00:15:46;16.42;;;7.80;;
83263;SDS011;73156;50.988;11.034;2024-01-27T00:18:11;17.35;;;7.28;;
83263;SDS011;73156;50.988;11.034;2024-01-27T00:20:36;17.67;;;7.60;;
83263;SDS011;73156;50.988;11.034;2024-01-27T00:23:03;15.98;;;7.95;;
83263;SDS011;73156;50.988;11.034;2024-01-27T00:25:28;14.27;;;7.13;;
83263;SDS011;73156;50.988;11.034;2024-01-27T00:27:53;14.37;;;7.43;;
83263;SDS011;73156;50.988;11.034;2024-01-27T00:30:19;18.67;;;9.93;;
83263;SDS011;73156;50.988;11.034;2024-01-27T00:32:44;20.13;;;9.90;;
83263;SDS011;73156;50.988;11.034;2024-01-27T00:35:09;18.73;;;9.50;;
83263;SDS011;73156;50.988;11.034;2024-01-27T00:37:36;16.50;;;8.70;;
83263;SDS011;73156;50.988;11.034;2024-01-27T00:40:01;17.98;;;8.75;;
83263;SDS011;73156;50.988;11.034;2024-01-27T00:42:27;23.98;;;9.80;;
83263;SDS011;73156;50.988;11.034;2024-01-27T00:44:52;22.50;;;9.53;;
83263;SDS011;73156;50.988;11.034;2024-01-27T00:47:17;20.30;;;9.10;;
83263;SDS011;73156;50.988;11.034;2024-01-27T00:49:42;18.10;;;9.25;;
83263;SDS011;73156;50.988;11.034;2024-01-27T00:52:08;22.00;;;8.13;;
83263;SDS011;73156;50.988;11.034;2024-01-27T00:54:33;18.80;;;9.10;;
83263;SDS011;73156;50.988;11.034;2024-01-27T00:56:58;18.20;;;9.03;;
83263;SDS011;73156;50.988;11.034;2024-01-27T00:59:23;18.30;;;8.47;;
83263;SDS011;73156;50.988;11.034;2024-01-27T01:01:49;19.10;;;9.25;;
83263;SDS011;73156;50.988;11.034;2024-01-27T01:04:14;17.88;;;8.32;;
83263;SDS011;73156;50.988;11.034;2024-01-27T01:06:40;16.53;;;8.13;;
83263;SDS011;73156;50.988;11.034;2024-01-27T01:09:05;22.13;;;8.65;;
83263;SDS011;73156;50.988;11.034;2024-01-27T01:11:30;29.40;;;12.93;;
83263;SDS011;73156;50.988;11.034;2024-01-27T01:13:55;20.50;;;10.73;;
83263;SDS011;73156;50.988;11.034;2024-01-27T01:16:21;20.47;;;9.20;;
83263;SDS011;73156;50.988;11.034;2024-01-27T01:18:46;24.40;;;9.30;;
83263;SDS011;73156;50.988;11.034;2024-01-27T01:21:11;23.80;;;10.70;;
83263;SDS011;73156;50.988;11.034;2024-01-27T01:23:36;19.77;;;10.33;;
83263;SDS011;73156;50.988;11.034;2024-01-27T01:26:02;24.63;;;10.97;;
83263;SDS011;73156;50.988;11.034;2024-01-27T01:28:27;21.35;;;9.38;;
83263;SDS011;73156;50.988;11.034;2024-01-27T01:30:53;22.67;;;11.27;;
83263;SDS011;73156;50.988;11.034;2024-01-27T01:33:18;20.00;;;9.57;;
83263;SDS011;73156;50.988;11.034;2024-01-27T01:35:44;21.13;;;10.07;;
83263;SDS011;73156;50.988;11.034;2024-01-27T01:38:09;20.10;;;9.37;;
83263;SDS011;73156;50.988;11.034;2024-01-27T01:40:34;21.13;;;10.70;;
83263;SDS011;73156;50.988;11.034;2024-01-27T01:42:59;17.73;;;9.47;;
83263;SDS011;73156;50.988;11.034;2024-01-27T01:45:25;20.23;;;9.53;;
83263;SDS011;73156;50.988;11.034;2024-01-27T01:47:50;19.70;;;9.17;;
83263;SDS011;73156;50.988;11.034;2024-01-27T01:50:15;20.27;;;9.07;;
83263;SDS011;73156;50.988;11.034;2024-01-27T01:52:40;18.05;;;9.50;;
83263;SDS011;73156;50.988;11.034;2024-01-27T01:55:06;21.33;;;9.07;;
83263;SDS011;73156;50.988;11.034;2024-01-27T01:57:32;22.45;;;9.95;;
83263;SDS011;73156;50.988;11.034;2024-01-27T01:59:58;20.73;;;9.90;;
83263;SDS011;73156;50.988;11.034;2024-01-27T02:02:23;25.05;;;10.93;;
83263;SDS011;73156;50.988;11.034;2024-01-27T02:04:48;17.23;;;9.35;;
83263;SDS011;73156;50.988;11.034;2024-01-27T02:07:14;20.90;;;9.82;;
83263;SDS011;73156;50.988;11.034;2024-01-27T02:09:40;19.27;;;9.07;;
83263;SDS011;73156;50.988;11.034;2024-01-27T02:12:05;19.55;;;8.70;;
83263;SDS011;73156;50.988;11.034;2024-01-27T02:14:31;18.17;;;9.48;;
83263;SDS011;73156;50.988;11.034;2024-01-27T02:16:57;17.35;;;8.75;;
83263;SDS011;73156;50.988;11.034;2024-01-27T02:19:22;18.98;;;9.20;;
83263;SDS011;73156;50.988;11.034;2024-01-27T02:21:48;17.05;;;8.82;;
83263;SDS011;73156;50.988;11.034;2024-01-27T02:24:13;21.37;;;8.57;;
83263;SDS011;73156;50.988;11.034;2024-01-27T02:26:38;18.33;;;8.93;;
83263;SDS011;73156;50.988;11.034;2024-01-27T02:29:04;17.93;;;8.57;;
83263;SDS011;73156;50.988;11.034;2024-01-27T02:31:29;16.13;;;8.70;;
83263;SDS011;73156;50.988;11.034;2024-01-27T02:33:54;16.25;;;7.80;;
83263;SDS011;73156;50.988;11.034;2024-01-27T02:36:19;18.17;;;8.07;;
83263;SDS011;73156;50.988;11.034;2024-01-27T02:38:45;15.80;;;8.40;;
83263;SDS011;73156;50.988;11.034;2024-01-27T02:41:10;16.65;;;7.88;;
83263;SDS011;73156;50.988;11.034;2024-01-27T02:43:36;20.02;;;9.23;;
83263;SDS011;73156;50.988;11.034;2024-01-27T02:46:01;15.80;;;8.80;;
83263;SDS011;73156;50.988;11.034;2024-01-27T02:48:27;14.70;;;7.53;;
83263;SDS011;73156;50.988;11.034;2024-01-27T02:50:52;15.70;;;8.70;;
83263;SDS011;73156;50.988;11.034;2024-01-27T02:53:17;16.17;;;9.13;;
83263;SDS011;73156;50.988;11.034;2024-01-27T02:55:42;19.20;;;8.67;;
83263;SDS011;73156;50.988;11.034;2024-01-27T02:58:08;15.63;;;8.38;;
83263;SDS011;73156;50.988;11.034;2024-01-27T03:00:33;16.20;;;8.20;;
83263;SDS011;73156;50.988;11.034;2024-01-27T03:02:58;17.83;;;8.43;;
83263;SDS011;73156;50.988;11.034;2024-01-27T03:05:24;16.08;;;8.85;;
83263;SDS011;73156;50.988;11.034;2024-01-27T03:07:49;15.88;;;8.80;;
83263;SDS011;73156;50.988;11.034;2024-01-27T03:10:14;17.70;;;8.97;;
83263;SDS011;73156;50.988;11.034;2024-01-27T03:12:39;16.90;;;8.77;;
83263;SDS011;73156;50.988;11.034;2024-01-27T03:15:05;14.57;;;7.53;;
83263;SDS011;73156;50.988;11.034;2024-01-27T03:17:30;13.07;;;7.50;;
83263;SDS011;73156;50.988;11.034;2024-01-27T03:19:55;13.40;;;7.40;;
83263;SDS011;73156;50.988;11.034;2024-01-27T03:22:21;15.73;;;8.60;;
83263;SDS011;73156;50.988;11.034;2024-01-27T03:24:46;17.40;;;8.20;;
83263;SDS011;73156;50.988;11.034;2024-01-27T03:27:11;17.03;;;8.67;;
83263;SDS011;73156;50.988;11.034;2024-01-27T03:29:36;16.15;;;8.15;;
83263;SDS011;73156;50.988;11.034;2024-01-27T03:32:02;16.30;;;8.27;;
83263;SDS011;73156;50.988;11.034;2024-01-27T03:34:27;13.40;;;7.57;;
83263;SDS011;73156;50.988;11.034;2024-01-27T03:36:53;15.80;;;8.93;;
83263;SDS011;73156;50.988;11.034;2024-01-27T03:39:18;14.73;;;8.87;;
83263;SDS011;73156;50.988;11.034;2024-01-27T03:41:43;16.80;;;9.52;;
83263;SDS011;73156;50.988;11.034;2024-01-27T03:44:10;19.80;;;8.70;;
83263;SDS011;73156;50.988;11.034;2024-01-27T03:46:35;15.90;;;8.80;;
83263;SDS011;73156;50.988;11.034;2024-01-27T03:49:02;18.08;;;8.95;;
83263;SDS011;73156;50.988;11.034;2024-01-27T03:51:27;15.93;;;8.50;;
83263;SDS011;73156;50.988;11.034;2024-01-27T03:53:53;14.90;;;8.40;;
83263;SDS011;73156;50.988;11.034;2024-01-27T03:56:19;16.47;;;8.07;;
83263;SDS011;73156;50.988;11.034;2024-01-27T03:58:44;14.07;;;8.30;;
83263;SDS011;73156;50.988;11.034;2024-01-27T04:01:09;17.23;;;8.77;;
83263;SDS011;73156;50.988;11.034;2024-01-27T04:03:34;14.63;;;8.13;;
83263;SDS011;73156;50.988;11.034;2024-01-27T04:06:00;14.23;;;7.40;;
83263;SDS011;73156;50.988;11.034;2024-01-27T04:08:27;14.68;;;8.27;;
83263;SDS011;73156;50.988;11.034;2024-01-27T04:10:52;13.93;;;7.63;;
83263;SDS011;73156;50.988;11.034;2024-01-27T04:13:17;14.37;;;8.10;;
83263;SDS011;73156;50.988;11.034;2024-01-27T04:15:42;15.37;;;7.93;;
83263;SDS011;73156;50.988;11.034;2024-01-27T04:18:08;15.97;;;8.20;;
83263;SDS011;73156;50.988;11.034;2024-01-27T04:20:34;14.23;;;7.80;;
83263;SDS011;73156;50.988;11.034;2024-01-27T04:23:00;19.55;;;8.07;;
83263;SDS011;73156;50.988;11.034;2024-01-27T04:25:25;16.43;;;8.73;;
83263;SDS011;73156;50.988;11.034;2024-01-27T04:27:50;15.48;;;7.97;;
83263;SDS011;73156;50.988;11.034;2024-01-27T04:30:15;14.87;;;8.40;;
83263;SDS011;73156;50.988;11.034;2024-01-27T04:32:41;14.23;;;7.35;;
83263;SDS011;73156;50.988;11.034;2024-01-27T04:35:09;13.57;;;7.13;;
83263;SDS011;73156;50.988;11.034;2024-01-27T04:37:35;12.95;;;7.43;;
83263;SDS011;73156;50.988;11.034;2024-01-27T04:40:02;15.25;;;7.90;;
83263;SDS011;73156;50.988;11.034;2024-01-27T04:42:29;14.80;;;7.43;;
83263;SDS011;73156;50.988;11.034;2024-01-27T04:44:54;15.80;;;8.77;;
83263;SDS011;73156;50.988;11.034;2024-01-27T04:47:19;14.85;;;8.20;;
83263;SDS011;73156;50.988;11.034;2024-01-27T04:49:44;13.40;;;8.10;;
83263;SDS011;73156;50.988;11.034;2024-01-27T04:52:10;14.87;;;7.67;;
83263;SDS011;73156;50.988;11.034;2024-01-27T04:54:35;14.83;;;7.33;;
83263;SDS011;73156;50.988;11.034;2024-01-27T04:57:01;13.45;;;7.97;;
83263;SDS011;73156;50.988;11.034;2024-01-27T04:59:27;14.88;;;8.13;;
83263;SDS011;73156;50.988;11.034;2024-01-27T05:01:52;14.43;;;7.60;;
83263;SDS011;73156;50.988;11.034;2024-01-27T05:04:17;15.60;;;7.43;;
83263;SDS011;73156;50.988;11.034;2024-01-27T05:06:45;16.57;;;8.77;;
83263;SDS011;73156;50.988;11.034;2024-01-27T05:09:11;13.13;;;7.63;;
83263;SDS011;73156;50.988;11.034;2024-01-27T05:11:37;13.68;;;7.60;;
83263;SDS011;73156;50.988;11.034;2024-01-27T05:14:02;14.13;;;8.10;;
83263;SDS011;73156;50.988;11.034;2024-01-27T05:16:28;16.23;;;7.53;;
83263;SDS011;73156;50.988;11.034;2024-01-27T05:18:53;13.77;;;8.05;;
83263;SDS011;73156;50.988;11.034;2024-01-27T05:21:19;13.15;;;7.03;;
83263;SDS011;73156;50.988;11.034;2024-01-27T05:23:44;14.37;;;7.77;;
83263;SDS011;73156;50.988;11.034;2024-01-27T05:26:09;14.80;;;7.32;;
83263;SDS011;73156;50.988;11.034;2024-01-27T05:28:38;15.68;;;8.40;;
83263;SDS011;73156;50.988;11.034;2024-01-27T05:31:06;15.13;;;7.28;;
83263;SDS011;73156;50.988;11.034;2024-01-27T05:33:32;12.65;;;7.22;;
83263;SDS011;73156;50.988;11.034;2024-01-27T05:35:57;15.30;;;7.97;;
83263;SDS011;73156;50.988;11.034;2024-01-27T05:38:22;15.20;;;8.00;;
83263;SDS011;73156;50.988;11.034;2024-01-27T05:40:47;14.50;;;7.90;;
83263;SDS011;73156;50.988;11.034;2024-01-27T05:43:14;13.35;;;7.93;;
83263;SDS011;73156;50.988;11.034;2024-01-27T05:45:40;14.73;;;8.05;;
83263;SDS011;73156;50.988;11.034;2024-01-27T05:48:05;14.33;;;8.20;;
83263;SDS011;73156;50.988;11.034;2024-01-27T05:50:31;16.27;;;8.40;;
83263;SDS011;73156;50.988;11.034;2024-01-27T05:52:57;15.35;;;8.32;;
83263;SDS011;73156;50.988;11.034;2024-01-27T05:55:22;14.93;;;7.43;;
83263;SDS011;73156;50.988;11.034;2024-01-27T05:57:47;15.32;;;8.43;;
83263;SDS011;73156;50.988;11.034;2024-01-27T06:00:13;15.53;;;8.93;;
83263;SDS011;73156;50.988;11.034;2024-01-27T06:02:38;13.15;;;6.90;;
83263;SDS011;73156;50.988;11.034;2024-01-27T06:05:04;15.20;;;8.00;;
83263;SDS011;73156;50.988;11.034;2024-01-27T06:07:29;13.35;;;7.43;;
83263;SDS011;73156;50.988;11.034;2024-01-27T06:09:54;12.53;;;8.13;;
83263;SDS011;73156;50.988;11.034;2024-01-27T06:12:20;14.23;;;7.63;;
83263;SDS011;73156;50.988;11.034;2024-01-27T06:14:45;14.85;;;8.65;;
83263;SDS011;73156;50.988;11.034;2024-01-27T06:17:10;14.60;;;9.10;;
83263;SDS011;73156;50.988;11.034;2024-01-27T06:19:36;14.73;;;8.27;;
83263;SDS011;73156;50.988;11.034;2024-01-27T06:22:02;15.32;;;8.60;;
83263;SDS011;73156;50.988;11.034;2024-01-27T06:24:27;14.18;;;8.05;;
83263;SDS011;73156;50.988;11.034;2024-01-27T06:26:53;15.90;;;8.50;;
83263;SDS011;73156;50.988;11.034;2024-01-27T06:29:18;15.10;;;9.00;;
83263;SDS011;73156;50.988;11.034;2024-01-27T06:31:43;17.77;;;9.15;;
83263;SDS011;73156;50.988;11.034;2024-01-27T06:34:09;15.80;;;8.60;;
83263;SDS011;73156;50.988;11.034;2024-01-27T06:36:34;17.33;;;9.02;;
83263;SDS011;73156;50.988;11.034;2024-01-27T06:38:59;14.27;;;8.17;;
83263;SDS011;73156;50.988;11.034;2024-01-27T06:41:25;14.97;;;8.80;;
83263;SDS011;73156;50.988;11.034;2024-01-27T06:43:50;16.07;;;8.53;;
83263;SDS011;73156;50.988;11.034;2024-01-27T06:46:15;15.23;;;8.47;;
83263;SDS011;73156;50.988;11.034;2024-01-27T06:48:40;14.77;;;8.43;;
83263;SDS011;73156;50.988;11.034;2024-01-27T06:51:06;16.83;;;9.00;;
83263;SDS011;73156;50.988;11.034;2024-01-27T06:53:31;14.00;;;8.90;;
83263;SDS011;73156;50.988;11.034;2024-01-27T06:55:56;15.45;;;8.85;;
83263;SDS011;73156;50.988;11.034;2024-01-27T06:58:21;17.00;;;9.57;;
83263;SDS011;73156;50.988;11.034;2024-01-27T07:00:47;18.40;;;9.10;;
83263;SDS011;73156;50.988;11.034;2024-01-27T07:03:12;15.03;;;8.20;;
83263;SDS011;73156;50.988;11.034;2024-01-27T07:05:37;15.33;;;9.07;;
83263;SDS011;73156;50.988;11.034;2024-01-27T07:08:08;14.00;;;8.70;;
83263;SDS011;73156;50.988;11.034;2024-01-27T07:10:34;14.15;;;7.80;;
83263;SDS011;73156;50.988;11.034;2024-01-27T07:12:59;16.75;;;9.35;;
83263;SDS011;73156;50.988;11.034;2024-01-27T07:15:25;16.45;;;9.23;;
83263;SDS011;73156;50.988;11.034;2024-01-27T07:17:50;15.82;;;8.98;;
83263;SDS011;73156;50.988;11.034;2024-01-27T07:20:16;15.00;;;8.20;;
83263;SDS011;73156;50.988;11.034;2024-01-27T07:22:41;15.40;;;8.60;;
83263;SDS011;73156;50.988;11.034;2024-01-27T07:25:06;14.02;;;8.57;;
83263;SDS011;73156;50.988;11.034;2024-01-27T07:27:35;17.15;;;9.10;;
83263;SDS011;73156;50.988;11.034;2024-01-27T07:30:00;14.53;;;8.20;;
83263;SDS011;73156;50.988;11.034;2024-01-27T07:32:25;15.90;;;8.93;;
83263;SDS011;73156;50.988;11.034;2024-01-27T07:34:51;15.02;;;8.05;;
83263;SDS011;73156;50.988;11.034;2024-01-27T07:37:16;14.53;;;8.57;;
83263;SDS011;73156;50.988;11.034;2024-01-27T07:39:41;15.82;;;8.35;;
83263;SDS011;73156;50.988;11.034;2024-01-27T07:42:07;15.57;;;8.17;;
83263;SDS011;73156;50.988;11.034;2024-01-27T07:44:32;15.10;;;8.50;;
83263;SDS011;73156;50.988;11.034;2024-01-27T07:46:57;15.82;;;8.10;;
83263;SDS011;73156;50.988;11.034;2024-01-27T07:49:22;16.17;;;9.00;;
83263;SDS011;73156;50.988;11.034;2024-01-27T07:51:48;15.97;;;8.93;;
83263;SDS011;73156;50.988;11.034;2024-01-27T07:54:13;11.95;;;7.38;;
83263;SDS011;73156;50.988;11.034;2024-01-27T07:56:38;16.83;;;9.23;;
83263;SDS011;73156;50.988;11.034;2024-01-27T07:59:03;15.67;;;9.33;;
83263;SDS011;73156;50.988;11.034;2024-01-27T08:01:29;15.90;;;9.00;;
83263;SDS011;73156;50.988;11.034;2024-01-27T08:03:54;15.83;;;8.17;;
83263;SDS011;73156;50.988;11.034;2024-01-27T08:06:20;17.67;;;8.47;;
83263;SDS011;73156;50.988;11.034;2024-01-27T08:08:52;15.40;;;8.80;;
83263;SDS011;73156;50.988;11.034;2024-01-27T08:11:18;14.57;;;8.07;;
83263;SDS011;73156;50.988;11.034;2024-01-27T08:13:43;15.07;;;8.98;;
83263;SDS011;73156;50.988;11.034;2024-01-27T08:16:09;15.60;;;8.50;;
83263;SDS011;73156;50.988;11.034;2024-01-27T08:18:37;14.65;;;8.35;;
83263;SDS011;73156;50.988;11.034;2024-01-27T08:21:03;16.48;;;8.55;;
83263;SDS011;73156;50.988;11.034;2024-01-27T08:23:29;13.52;;;8.50;;
83263;SDS011;73156;50.988;11.034;2024-01-27T08:25:54;15.23;;;8.60;;
83263;SDS011;73156;50.988;11.034;2024-01-27T08:28:20;14.30;;;8.77;;
83263;SDS011;73156;50.988;11.034;2024-01-27T08:30:45;14.85;;;8.32;;
83263;SDS011;73156;50.988;11.034;2024-01-27T08:33:10;16.77;;;8.18;;
83263;SDS011;73156;50.988;11.034;2024-01-27T08:35:36;16.60;;;8.87;;
83263;SDS011;73156;50.988;11.034;2024-01-27T08:38:01;17.80;;;9.80;;
83263;SDS011;73156;50.988;11.034;2024-01-27T08:40:28;14.52;;;8.57;;
83263;SDS011;73156;50.988;11.034;2024-01-27T08:42:53;13.93;;;8.27;;
83263;SDS011;73156;50.988;11.034;2024-01-27T08:45:19;14.50;;;8.47;;
83263;SDS011;73156;50.988;11.034;2024-01-27T08:47:44;15.87;;;8.93;;
83263;SDS011;73156;50.988;11.034;2024-01-27T08:50:09;14.63;;;8.67;;
83263;SDS011;73156;50.988;11.034;2024-01-27T08:52:35;13.00;;;7.38;;
83263;SDS011;73156;50.988;11.034;2024-01-27T08:55:00;14.07;;;8.43;;
83263;SDS011;73156;50.988;11.034;2024-01-27T08:57:26;12.57;;;7.67;;
83263;SDS011;73156;50.988;11.034;2024-01-27T08:59:51;16.73;;;8.90;;
83263;SDS011;73156;50.988;11.034;2024-01-27T09:02:16;16.80;;;9.27;;
83263;SDS011;73156;50.988;11.034;2024-01-27T09:04:41;15.13;;;8.53;;
83263;SDS011;73156;50.988;11.034;2024-01-27T09:07:07;14.73;;;9.33;;
83263;SDS011;73156;50.988;11.034;2024-01-27T09:09:32;14.60;;;8.37;;
83263;SDS011;73156;50.988;11.034;2024-01-27T09:11:57;15.23;;;8.60;;
83263;SDS011;73156;50.988;11.034;2024-01-27T09:14:22;15.00;;;8.33;;
83263;SDS011;73156;50.988;11.034;2024-01-27T09:16:48;14.40;;;8.47;;
83263;SDS011;73156;50.988;11.034;2024-01-27T09:19:13;14.50;;;8.77;;
83263;SDS011;73156;50.988;11.034;2024-01-27T09:21:38;15.43;;;8.10;;
83263;SDS011;73156;50.988;11.034;2024-01-27T09:24:03;13.17;;;7.73;;
83263;SDS011;73156;50.988;11.034;2024-01-27T09:26:29;14.82;;;8.00;;
83263;SDS011;73156;50.988;11.034;2024-01-27T09:28:54;13.35;;;7.90;;
83263;SDS011;73156;50.988;11.034;2024-01-27T09:31:21;14.98;;;8.57;;
83263;SDS011;73156;50.988;11.034;2024-01-27T09:33:48;13.90;;;8.10;;
83263;SDS011;73156;50.988;11.034;2024-01-27T09:36:20;14.43;;;7.85;;
83263;SDS011;73156;50.988;11.034;2024-01-27T09:38:46;15.35;;;8.35;;
83263;SDS011;73156;50.988;11.034;2024-01-27T09:41:12;15.98;;;8.77;;
83263;SDS011;73156;50.988;11.034;2024-01-27T09:43:39;14.57;;;7.90;;
83263;SDS011;73156;50.988;11.034;2024-01-27T09:46:08;16.25;;;8.80;;
83263;SDS011;73156;50.988;11.034;2024-01-27T09:48:34;15.57;;;7.13;;
83263;SDS011;73156;50.988;11.034;2024-01-27T09:51:00;14.50;;;7.53;;
83263;SDS011;73156;50.988;11.034;2024-01-27T09:53:28;13.25;;;7.50;;
83263;SDS011;73156;50.988;11.034;2024-01-27T09:55:53;14.93;;;7.95;;
83263;SDS011;73156;50.988;11.034;2024-01-27T09:58:21;15.55;;;8.23;;
83263;SDS011;73156;50.988;11.034;2024-01-27T10:00:48;15.50;;;7.90;;
83263;SDS011;73156;50.988;11.034;2024-01-27T10:03:14;12.13;;;7.05;;
83263;SDS011;73156;50.988;11.034;2024-01-27T10:05:39;13.70;;;7.27;;
83263;SDS011;73156;50.988;11.034;2024-01-27T10:08:06;13.82;;;7.20;;
83263;SDS011;73156;50.988;11.034;2024-01-27T10:10:33;14.15;;;8.07;;
83263;SDS011;73156;50.988;11.034;2024-01-27T10:12:58;13.95;;;7.22;;
83263;SDS011;73156;50.988;11.034;2024-01-27T10:15:28;12.90;;;7.15;;
83263;SDS011;73156;50.988;11.034;2024-01-27T10:18:03;13.27;;;7.00;;
83263;SDS011;73156;50.988;11.034;2024-01-27T10:20:30;16.63;;;7.95;;
83263;SDS011;73156;50.988;11.034;2024-01-27T10:22:55;13.57;;;6.67;;
83263;SDS011;73156;50.988;11.034;2024-01-27T10:25:20;13.50;;;7.87;;
83263;SDS011;73156;50.988;11.034;2024-01-27T10:27:46;12.73;;;7.50;;
83263;SDS011;73156;50.988;11.034;2024-01-27T10:30:16;15.20;;;7.45;;
83263;SDS011;73156;50.988;11.034;2024-01-27T10:32:42;15.77;;;7.47;;
83263;SDS011;73156;50.988;11.034;2024-01-27T10:35:07;12.38;;;7.22;;
83263;SDS011;73156;50.988;11.034;2024-01-27T10:37:33;13.30;;;7.43;;
83263;SDS011;73156;50.988;11.034;2024-01-27T10:42:35;14.75;;;7.35;;
83263;SDS011;73156;50.988;11.034;2024-01-27T10:45:02;15.18;;;8.57;;
83263;SDS011;73156;50.988;11.034;2024-01-27T10:47:28;14.70;;;7.75;;
83263;SDS011;73156;50.988;11.034;2024-01-27T10:49:55;13.68;;;7.55;;
83263;SDS011;73156;50.988;11.034;2024-01-27T10:52:23;12.25;;;6.57;;
83263;SDS011;73156;50.988;11.034;2024-01-27T10:54:54;16.27;;;7.80;;
83263;SDS011;73156;50.988;11.034;2024-01-27T10:57:23;15.57;;;8.10;;
83263;SDS011;73156;50.988;11.034;2024-01-27T10:59:49;14.20;;;7.25;;
83263;SDS011;73156;50.988;11.034;2024-01-27T11:02:17;15.23;;;8.07;;
83263;SDS011;73156;50.988;11.034;2024-01-27T11:04:43;12.63;;;7.70;;
83263;SDS011;73156;50.988;11.034;2024-01-27T11:07:10;14.18;;;7.60;;
83263;SDS011;73156;50.988;11.034;2024-01-27T11:09:36;14.88;;;7.63;;
83263;SDS011;73156;50.988;11.034;2024-01-27T11:12:02;13.05;;;7.30;;
83263;SDS011;73156;50.988;11.034;2024-01-27T11:14:28;15.30;;;7.70;;
83263;SDS011;73156;50.988;11.034;2024-01-27T11:16:55;12.77;;;7.43;;
83263;SDS011;73156;50.988;11.034;2024-01-27T11:19:23;23.65;;;8.77;;
83263;SDS011;73156;50.988;11.034;2024-01-27T11:21:48;23.40;;;9.77;;
83263;SDS011;73156;50.988;11.034;2024-01-27T11:24:24;18.10;;;9.23;;
83263;SDS011;73156;50.988;11.034;2024-01-27T11:26:59;21.60;;;9.73;;
83263;SDS011;73156;50.988;11.034;2024-01-27T11:29:25;23.75;;;10.48;;
83263;SDS011;73156;50.988;11.034;2024-01-27T11:31:51;20.77;;;10.05;;
83263;SDS011;73156;50.988;11.034;2024-01-27T11:34:17;22.45;;;11.05;;
83263;SDS011;73156;50.988;11.034;2024-01-27T11:36:44;17.92;;;10.00;;
83263;SDS011;73156;50.988;11.034;2024-01-27T11:39:25;21.80;;;11.40;;
83263;SDS011;73156;50.988;11.034;2024-01-27T11:41:52;23.33;;;11.13;;
83263;SDS011;73156;50.988;11.034;2024-01-27T11:44:18;22.85;;;12.07;;
83263;SDS011;73156;50.988;11.034;2024-01-27T11:46:44;22.13;;;10.90;;
83263;SDS011;73156;50.988;11.034;2024-01-27T11:49:17;23.63;;;12.07;;
83263;SDS011;73156;50.988;11.034;2024-01-27T11:51:42;24.02;;;12.40;;
83263;SDS011;73156;50.988;11.034;2024-01-27T11:54:08;22.63;;;11.98;;
83263;SDS011;73156;50.988;11.034;2024-01-27T11:56:34;31.10;;;13.17;;
83263;SDS011;73156;50.988;11.034;2024-01-27T11:58:59;23.03;;;12.20;;
83263;SDS011;73156;50.988;11.034;2024-01-27T12:01:24;22.53;;;11.13;;
83263;SDS011;73156;50.988;11.034;2024-01-27T12:03:49;21.70;;;11.90;;
83263;SDS011;73156;50.988;11.034;2024-01-27T12:06:15;24.85;;;12.73;;
83263;SDS011;73156;50.988;11.034;2024-01-27T12:08:41;27.65;;;12.85;;
83263;SDS011;73156;50.988;11.034;2024-01-27T12:11:11;24.08;;;12.50;;
83263;SDS011;73156;50.988;11.034;2024-01-27T12:13:37;22.80;;;10.70;;
83263;SDS011;73156;50.988;11.034;2024-01-27T12:16:03;20.50;;;11.03;;
83263;SDS011;73156;50.988;11.034;2024-01-27T12:18:28;23.05;;;10.43;;
83263;SDS011;73156;50.988;11.034;2024-01-27T12:20:54;24.38;;;12.05;;
83263;SDS011;73156;50.988;11.034;2024-01-27T12:23:21;23.80;;;12.20;;
83263;SDS011;73156;50.988;11.034;2024-01-27T12:25:52;21.53;;;11.47;;
83263;SDS011;73156;50.988;11.034;2024-01-27T12:28:17;21.33;;;11.77;;
83263;SDS011;73156;50.988;11.034;2024-01-27T12:30:44;25.33;;;12.73;;
83263;SDS011;73156;50.988;11.034;2024-01-27T12:33:09;20.20;;;11.87;;
83263;SDS011;73156;50.988;11.034;2024-01-27T12:35:37;25.77;;;11.50;;
83263;SDS011;73156;50.988;11.034;2024-01-27T12:38:02;26.03;;;11.20;;
83263;SDS011;73156;50.988;11.034;2024-01-27T12:40:28;24.90;;;11.48;;
83263;SDS011;73156;50.988;11.034;2024-01-27T12:42:53;25.57;;;12.63;;
83263;SDS011;73156;50.988;11.034;2024-01-27T12:45:19;22.37;;;12.20;;
83263;SDS011;73156;50.988;11.034;2024-01-27T12:47:44;22.20;;;11.47;;
83263;SDS011;73156;50.988;11.034;2024-01-27T12:50:09;23.45;;;11.93;;
83263;SDS011;73156;50.988;11.034;2024-01-27T12:52:35;25.20;;;12.10;;
83263;SDS011;73156;50.988;11.034;2024-01-27T12:55:00;25.07;;;13.13;;
83263;SDS011;73156;50.988;11.034;2024-01-27T12:57:25;22.47;;;12.50;;
83263;SDS011;73156;50.988;11.034;2024-01-27T12:59:50;23.40;;;12.38;;
83263;SDS011;73156;50.988;11.034;2024-01-27T13:02:16;23.50;;;13.30;;
83263;SDS011;73156;50.988;11.034;2024-01-27T13:04:41;25.02;;;12.95;;
83263;SDS011;73156;50.988;11.034;2024-01-27T13:07:07;24.38;;;10.50;;
83263;SDS011;73156;50.988;11.034;2024-01-27T13:09:32;21.88;;;11.80;;
83263;SDS011;73156;50.988;11.034;2024-01-27T13:11:59;22.45;;;9.18;;
83263;SDS011;73156;50.988;11.034;2024-01-27T13:14:24;23.83;;;8.93;;
83263;SDS011;73156;50.988;11.034;2024-01-27T13:16:49;19.60;;;9.03;;
83263;SDS011;73156;50.988;11.034;2024-01-27T13:19:14;19.00;;;8.43;;
83263;SDS011;73156;50.988;11.034;2024-01-27T13:21:40;19.80;;;9.07;;
83263;SDS011;73156;50.988;11.034;2024-01-27T13:24:05;14.20;;;6.45;;
83263;SDS011;73156;50.988;11.034;2024-01-27T13:26:33;14.43;;;5.60;;
83263;SDS011;73156;50.988;11.034;2024-01-27T13:29:02;17.08;;;6.35;;
83263;SDS011;73156;50.988;11.034;2024-01-27T13:31:28;15.77;;;6.78;;
83263;SDS011;73156;50.988;11.034;2024-01-27T13:33:53;19.17;;;6.60;;
83263;SDS011;73156;50.988;11.034;2024-01-27T13:36:19;17.77;;;5.40;;
83263;SDS011;73156;50.988;11.034;2024-01-27T13:38:44;15.37;;;5.77;;
83263;SDS011;73156;50.988;11.034;2024-01-27T13:41:09;16.07;;;4.30;;
83263;SDS011;73156;50.988;11.034;2024-01-27T13:43:34;14.87;;;4.73;;
83263;SDS011;73156;50.988;11.034;2024-01-27T13:46:00;10.00;;;4.73;;
83263;SDS011;73156;50.988;11.034;2024-01-27T13:48:25;13.93;;;4.10;;
83263;SDS011;73156;50.988;11.034;2024-01-27T13:50:51;8.82;;;3.58;;
83263;SDS011;73156;50.988;11.034;2024-01-27T13:53:17;12.57;;;4.20;;
83263;SDS011;73156;50.988;11.034;2024-01-27T13:55:43;15.50;;;3.83;;
83263;SDS011;73156;50.988;11.034;2024-01-27T13:58:09;10.32;;;3.67;;
83263;SDS011;73156;50.988;11.034;2024-01-27T14:00:34;11.50;;;3.35;;
83263;SDS011;73156;50.988;11.034;2024-01-27T14:03:00;10.93;;;3.90;;
83263;SDS011;73156;50.988;11.034;2024-01-27T14:05:25;12.60;;;4.10;;
83263;SDS011;73156;50.988;11.034;2024-01-27T14:07:51;14.10;;;3.77;;
83263;SDS011;73156;50.988;11.034;2024-01-27T14:10:16;8.48;;;3.20;;
83263;SDS011;73156;50.988;11.034;2024-01-27T14:12:41;11.25;;;3.88;;
83263;SDS011;73156;50.988;11.034;2024-01-27T14:15:08;10.52;;;3.30;;